createdAt,value
2023-03-04T00:00:07.739Z,100243.38
2023-03-04T00:02:40.003Z,100229.44
2023-03-04T00:05:10.377Z,100231.22
2023-03-04T00:07:37.129Z,100311.81
2023-03-04T00:10:05.048Z,100390.44
2023-03-04T00:12:34.378Z,100295.72
2023-03-04T00:15:03.646Z,100328.91
2023-03-04T00:17:32.622Z,100216.72
2023-03-04T00:19:59.373Z,100296.31
2023-03-04T00:22:29.539Z,100380.28
2023-03-04T00:24:56.353Z,100353.44
2023-03-04T00:27:23.454Z,100381.16
2023-03-04T00:29:52.404Z,100263.31
2023-03-04T00:32:32.369Z,100229.75
2023-03-04T00:35:01.605Z,100384.09
2023-03-04T00:37:32.969Z,100288.81
2023-03-04T00:40:01.823Z,100367.16
2023-03-04T00:42:28.560Z,100322.00
2023-03-04T00:44:57.809Z,100328.50
2023-03-04T00:47:24.555Z,100316.88
2023-03-04T00:49:51.413Z,100380.25
2023-03-04T00:52:22.976Z,100366.19
2023-03-04T00:54:49.758Z,100330.03
2023-03-04T00:57:16.541Z,100297.38
2023-03-04T00:59:44.065Z,100360.16
2023-03-04T01:02:11.202Z,100289.78
2023-03-04T01:04:42.008Z,100361.34
2023-03-04T01:07:16.940Z,100300.75
2023-03-04T01:09:43.901Z,100149.91
2023-03-04T01:12:15.384Z,100330.00
2023-03-04T01:14:43.622Z,100356.59
2023-03-04T01:17:15.041Z,100214.69
2023-03-04T01:19:44.270Z,100265.03
2023-03-04T01:22:12.455Z,100296.13
2023-03-04T01:24:39.426Z,100241.38
2023-03-04T01:27:15.362Z,100340.53
2023-03-04T01:29:46.120Z,100245.22
2023-03-04T01:32:29.212Z,100243.72
2023-03-04T01:34:58.686Z,100328.78
2023-03-04T01:37:30.253Z,100255.03
2023-03-04T01:40:02.558Z,100292.84
2023-03-04T01:42:38.492Z,100341.81
2023-03-04T01:45:07.041Z,100275.94
2023-03-04T01:47:36.100Z,100260.16
2023-03-04T01:50:05.919Z,100324.69
2023-03-04T01:52:35.497Z,100272.91
2023-03-04T01:55:14.532Z,100236.00
2023-03-04T01:57:46.739Z,100282.91
2023-03-04T02:00:33.920Z,100156.34
2023-03-04T02:03:08.231Z,100321.09
2023-03-04T02:05:41.578Z,100322.16
2023-03-04T02:08:11.849Z,100309.31
2023-03-04T02:10:39.622Z,100321.16
2023-03-04T02:13:06.646Z,100313.22
2023-03-04T02:15:39.021Z,100253.88
2023-03-04T02:18:17.130Z,100125.50
2023-03-04T02:21:03.165Z,100162.03
2023-03-04T02:23:44.553Z,100139.00
2023-03-04T02:26:21.699Z,100298.66
2023-03-04T02:28:52.716Z,100163.25
2023-03-04T02:31:32.943Z,100289.13
2023-03-04T02:34:05.579Z,100291.06
2023-03-04T02:36:33.185Z,100290.66
2023-03-04T02:39:12.706Z,100201.41
2023-03-04T02:41:45.138Z,100234.84
2023-03-04T02:44:23.111Z,100273.00
2023-03-04T02:46:52.769Z,100278.66
2023-03-04T02:49:22.999Z,100275.47
2023-03-04T02:51:54.695Z,100175.34
2023-03-04T02:54:23.526Z,100168.28
2023-03-04T02:56:58.585Z,100208.25
2023-03-04T02:59:27.875Z,100098.56
2023-03-04T03:01:54.818Z,100120.25
2023-03-04T03:04:29.774Z,100275.88
2023-03-04T03:06:59.346Z,100260.56
2023-03-04T03:09:26.381Z,100264.81
2023-03-04T03:11:58.921Z,100255.34
2023-03-04T03:14:28.843Z,100141.56
2023-03-04T03:17:00.851Z,100153.72
2023-03-04T03:19:31.502Z,100236.47
2023-03-04T03:22:02.901Z,100249.66
2023-03-04T03:24:29.777Z,100111.31
2023-03-04T03:26:56.590Z,99990.13
2023-03-04T03:29:24.060Z,100125.09
2023-03-04T03:31:50.992Z,100177.50
2023-03-04T03:34:23.449Z,100245.47
2023-03-04T03:36:52.348Z,100160.34
2023-03-04T03:39:22.272Z,100160.97
2023-03-04T03:41:49.051Z,100148.13
2023-03-04T03:44:15.814Z,100173.09
2023-03-04T03:46:42.559Z,100148.38
2023-03-04T03:49:09.395Z,100137.75
2023-03-04T03:51:36.087Z,100165.19
2023-03-04T03:54:02.910Z,100148.38
2023-03-04T03:56:29.830Z,100191.97
2023-03-04T03:58:57.523Z,100095.34
2023-03-04T04:01:26.813Z,100225.44
2023-03-04T04:03:55.831Z,100234.63
2023-03-04T04:06:23.126Z,100047.94
2023-03-04T04:08:49.821Z,100113.91
2023-03-04T04:11:17.051Z,100107.09
2023-03-04T04:13:43.931Z,100084.50
2023-03-04T04:16:13.153Z,100110.03
2023-03-04T04:18:42.179Z,100174.28
2023-03-04T04:21:09.659Z,100121.81
2023-03-04T04:23:36.414Z,100187.84
2023-03-04T04:26:03.345Z,100086.63
2023-03-04T04:28:34.069Z,100227.44
2023-03-04T04:31:03.132Z,100139.56
2023-03-04T04:33:30.009Z,100132.31
2023-03-04T04:35:56.804Z,100168.69
2023-03-04T04:38:24.764Z,100100.94
2023-03-04T04:40:54.008Z,100224.72
2023-03-04T04:43:20.841Z,100131.38
2023-03-04T04:45:49.877Z,100085.44
2023-03-04T04:48:18.808Z,100229.13
2023-03-04T04:50:45.652Z,100034.97
2023-03-04T04:53:14.404Z,100106.75
2023-03-04T04:55:41.276Z,100009.06
2023-03-04T04:58:08.082Z,100133.31
2023-03-04T05:00:39.796Z,100190.94
2023-03-04T05:03:09.031Z,100152.47
2023-03-04T05:05:38.118Z,100036.66
2023-03-04T05:08:05.370Z,100229.28
2023-03-04T05:10:32.121Z,100043.38
2023-03-04T05:13:01.086Z,100255.66
2023-03-04T05:15:27.926Z,100262.75
2023-03-04T05:17:59.555Z,100054.75
2023-03-04T05:20:28.601Z,100233.38
2023-03-04T05:22:57.703Z,100082.88
2023-03-04T05:25:27.425Z,100133.09
2023-03-04T05:27:54.211Z,99944.41
2023-03-04T05:30:21.249Z,100122.16
2023-03-04T05:32:50.150Z,100090.09
2023-03-04T05:35:17.074Z,100047.81
2023-03-04T05:37:46.079Z,100042.00
2023-03-04T05:40:13.743Z,100186.19
2023-03-04T05:42:40.521Z,100169.97
2023-03-04T05:45:10.260Z,100182.22
2023-03-04T05:47:37.095Z,100109.34
2023-03-04T05:50:06.383Z,100247.19
2023-03-04T05:52:33.435Z,99994.22
2023-03-04T05:55:00.230Z,99988.13
2023-03-04T05:57:32.063Z,100092.91
2023-03-04T06:00:01.472Z,99953.94
2023-03-04T06:02:31.115Z,100254.38
2023-03-04T06:05:00.169Z,100012.78
2023-03-04T06:07:29.254Z,100228.63
2023-03-04T06:09:58.415Z,100233.97
2023-03-04T06:12:25.733Z,100232.53
2023-03-04T06:14:54.865Z,100086.03
2023-03-04T06:17:22.055Z,100066.16
2023-03-04T06:19:51.616Z,100099.66
2023-03-04T06:22:18.306Z,100268.69
2023-03-04T06:24:45.132Z,100179.09
2023-03-04T06:27:11.955Z,100149.13
2023-03-04T06:29:43.884Z,100268.94
2023-03-04T06:32:13.095Z,100267.31
2023-03-04T06:34:42.477Z,100033.25
2023-03-04T06:37:09.233Z,100067.25
2023-03-04T06:39:36.643Z,100162.53
2023-03-04T06:42:05.833Z,100120.25
2023-03-04T06:44:38.161Z,100106.94
2023-03-04T06:47:05.098Z,100088.50
2023-03-04T06:49:31.833Z,100228.56
2023-03-04T06:51:58.821Z,100194.47
2023-03-04T06:54:30.877Z,100257.69
2023-03-04T06:56:59.979Z,100159.91
2023-03-04T06:59:29.035Z,100165.03
2023-03-04T07:01:55.828Z,99995.59
2023-03-04T07:04:27.477Z,100287.09
2023-03-04T07:06:57.013Z,100147.22
2023-03-04T07:09:26.768Z,100280.25
2023-03-04T07:11:53.550Z,100144.81
2023-03-04T07:14:24.207Z,100279.31
2023-03-04T07:16:51.232Z,100082.31
2023-03-04T07:19:20.374Z,100066.75
2023-03-04T07:21:47.392Z,100238.56
2023-03-04T07:24:14.151Z,100254.03
2023-03-04T07:26:41.012Z,100233.44
2023-03-04T07:29:12.976Z,100120.31
2023-03-04T07:31:39.895Z,100121.44
2023-03-04T07:34:15.585Z,100105.41
2023-03-04T07:36:45.727Z,100011.16
2023-03-04T07:39:15.848Z,100286.44
2023-03-04T07:41:43.011Z,100046.09
2023-03-04T07:44:13.630Z,100276.03
2023-03-04T07:46:42.802Z,100084.66
2023-03-04T07:49:12.365Z,100221.41
2023-03-04T07:51:39.434Z,100268.03
2023-03-04T07:54:06.234Z,100122.50
2023-03-04T07:56:34.920Z,100265.09
2023-03-04T07:59:02.758Z,100260.84
2023-03-04T08:01:34.220Z,100284.47
2023-03-04T08:04:02.162Z,100159.44
2023-03-04T08:06:32.043Z,100094.94
2023-03-04T08:09:06.718Z,100279.72
2023-03-04T08:11:35.247Z,100275.56
2023-03-04T08:14:06.401Z,100271.34
2023-03-04T08:16:35.814Z,100169.19
2023-03-04T08:19:06.318Z,100280.22
2023-03-04T08:21:33.488Z,100280.44
2023-03-04T08:24:02.797Z,100285.25
2023-03-04T08:26:34.282Z,100274.91
2023-03-04T08:29:05.125Z,100191.66
2023-03-04T08:31:32.452Z,100239.16
2023-03-04T08:34:02.911Z,100284.97
2023-03-04T08:36:32.415Z,100266.81
2023-03-04T08:39:01.523Z,100140.25
2023-03-04T08:41:29.453Z,100147.69
2023-03-04T08:43:56.398Z,100205.88
2023-03-04T08:46:23.263Z,100188.94
2023-03-04T08:48:54.523Z,100269.59
2023-03-04T08:51:21.445Z,100254.00
2023-03-04T08:53:50.830Z,100245.72
2023-03-04T08:56:17.472Z,100247.75
2023-03-04T08:58:44.514Z,100087.09
2023-03-04T09:01:15.603Z,100112.09
2023-03-04T09:03:43.154Z,100243.25
2023-03-04T09:06:12.871Z,100235.06
2023-03-04T09:08:39.679Z,100086.78
2023-03-04T09:11:07.072Z,100145.72
2023-03-04T09:13:34.094Z,100238.28
2023-03-04T09:16:01.337Z,100011.53
2023-03-04T09:18:31.353Z,100245.47
2023-03-04T09:21:01.119Z,100072.41
2023-03-04T09:23:28.660Z,100116.38
2023-03-04T09:25:55.482Z,100053.69
2023-03-04T09:28:22.432Z,99508.81
2023-03-04T09:30:49.253Z,100055.16
2023-03-04T09:33:16.329Z,100175.38
2023-03-04T09:35:46.161Z,100232.97
2023-03-04T09:38:13.578Z,100098.13
2023-03-04T09:40:46.377Z,100209.53
2023-03-04T09:43:23.301Z,100217.66
2023-03-04T09:45:54.140Z,100214.31
2023-03-04T09:48:25.239Z,100216.03
2023-03-04T09:51:11.104Z,100144.28
2023-03-04T09:54:18.765Z,100203.13
2023-03-04T09:56:54.181Z,100192.44
2023-03-04T09:59:23.938Z,100200.66
2023-03-04T10:02:10.684Z,100148.97
2023-03-04T10:04:59.690Z,100200.38
2023-03-04T10:07:31.935Z,100172.47
2023-03-04T10:10:14.858Z,100052.94
2023-03-04T10:12:44.300Z,100199.91
2023-03-04T10:15:19.528Z,100187.78
2023-03-04T10:17:56.621Z,100188.34
2023-03-04T10:20:58.696Z,100253.75
2023-03-04T10:23:31.617Z,100181.25
2023-03-04T10:26:03.242Z,100179.72
2023-03-04T10:28:33.049Z,100163.66
2023-03-04T10:31:02.094Z,100062.84
2023-03-04T10:33:35.216Z,100132.16
2023-03-04T10:36:04.135Z,100162.94
2023-03-04T10:38:43.671Z,100128.22
2023-03-04T10:41:14.711Z,100047.56
2023-03-04T10:43:50.188Z,100077.19
2023-03-04T10:46:17.841Z,99995.34
2023-03-04T10:48:45.639Z,99833.44
2023-03-04T10:51:19.774Z,100147.31
2023-03-04T10:53:48.002Z,100105.56
2023-03-04T10:56:53.102Z,100134.38
2023-03-04T10:59:32.229Z,100130.72
2023-03-04T11:02:15.507Z,100140.63
2023-03-04T11:04:50.408Z,99960.84
2023-03-04T11:07:17.250Z,100139.88
2023-03-04T11:09:47.247Z,99867.38
2023-03-04T11:12:19.698Z,100145.72
2023-03-04T11:14:51.211Z,100130.28
2023-03-04T11:17:17.881Z,100132.81
2023-03-04T11:19:51.960Z,99895.16
2023-03-04T11:22:23.897Z,100054.69
2023-03-04T11:25:14.905Z,100119.78
2023-03-04T11:27:49.343Z,100067.56
2023-03-04T11:30:26.283Z,100101.16
2023-03-04T11:32:57.097Z,100109.53
2023-03-04T11:35:39.378Z,100109.69
2023-03-04T11:38:24.457Z,100072.78
2023-03-04T11:40:58.138Z,100093.22
2023-03-04T11:43:45.805Z,100097.28
2023-03-04T11:46:18.839Z,100101.97
2023-03-04T11:49:09.955Z,100088.63
2023-03-04T11:51:48.620Z,100083.88
2023-03-04T11:54:34.730Z,100033.28
2023-03-04T11:57:55.094Z,100074.09
2023-03-04T12:00:53.355Z,100074.03
2023-03-04T12:03:31.368Z,99983.41
2023-03-04T12:06:27.247Z,100063.00
2023-03-04T12:09:05.725Z,99943.75
2023-03-04T12:11:59.777Z,100040.25
2023-03-04T12:14:39.257Z,100043.50
2023-03-04T12:17:09.669Z,100027.97
2023-03-04T12:19:56.775Z,99919.03
2023-03-04T12:22:54.981Z,100019.59
2023-03-04T12:25:40.456Z,100014.81
2023-03-04T12:28:23.340Z,99913.41
2023-03-04T12:31:08.051Z,100000.81
2023-03-04T12:33:53.413Z,100007.88
2023-03-04T12:37:01.918Z,99806.09
2023-03-04T12:39:43.528Z,100008.56
2023-03-04T12:42:29.306Z,99845.75
2023-03-04T12:45:01.660Z,100007.50
2023-03-04T12:47:37.100Z,99999.72
2023-03-04T12:50:28.583Z,99996.91
2023-03-04T12:53:17.485Z,99995.28
2023-03-04T12:55:46.184Z,99938.19
2023-03-04T12:58:24.288Z,99883.13
2023-03-04T13:01:00.406Z,99984.78
2023-03-04T13:03:42.781Z,99976.84
2023-03-04T13:06:37.579Z,99968.75
2023-03-04T13:09:31.109Z,99955.41
2023-03-04T13:12:16.191Z,99956.75
2023-03-04T13:15:09.049Z,99775.53
2023-03-04T13:17:43.410Z,99650.28
2023-03-04T13:20:32.629Z,99925.75
2023-03-04T13:23:09.466Z,99845.00
2023-03-04T13:25:39.223Z,99925.56
2023-03-04T13:28:11.514Z,99797.00
2023-03-04T13:30:38.316Z,99913.88
2023-03-04T13:33:11.259Z,99913.63
2023-03-04T13:35:49.333Z,99903.66
2023-03-04T13:38:28.461Z,99848.03
2023-03-04T13:41:14.053Z,99906.00
2023-03-04T13:44:04.390Z,99903.47
2023-03-04T13:46:43.005Z,99864.16
2023-03-04T13:49:24.649Z,99775.47
2023-03-04T13:51:51.784Z,99913.66
2023-03-04T13:54:32.813Z,99741.53
2023-03-04T13:57:21.018Z,99747.56
2023-03-04T13:59:55.037Z,99866.97
2023-03-04T14:02:25.956Z,99836.66
2023-03-04T14:05:02.630Z,99912.59
2023-03-04T14:07:47.473Z,99811.03
2023-03-04T14:10:16.385Z,99883.59
2023-03-04T14:12:50.390Z,99887.47
2023-03-04T14:15:26.221Z,99865.13
2023-03-04T14:17:55.294Z,99707.00
2023-03-04T14:20:30.176Z,99881.25
2023-03-04T14:22:59.194Z,99758.06
2023-03-04T14:25:31.048Z,99874.25
2023-03-04T14:28:12.707Z,99873.53
2023-03-04T14:30:43.737Z,99795.06
2023-03-04T14:33:23.681Z,99865.94
2023-03-04T14:35:56.171Z,99835.75
2023-03-04T14:38:35.007Z,99705.06
2023-03-04T14:41:19.298Z,99881.13
2023-03-04T14:44:09.056Z,99858.56
2023-03-04T14:46:40.503Z,99864.91
2023-03-04T14:49:11.947Z,99857.31
2023-03-04T14:51:54.190Z,99697.28
2023-03-04T14:54:46.413Z,99785.91
2023-03-04T14:57:21.068Z,99861.28
2023-03-04T14:59:51.488Z,99863.63
2023-03-04T15:02:21.368Z,99867.03
2023-03-04T15:04:51.340Z,99793.75
2023-03-04T15:07:29.930Z,99883.44
2023-03-04T15:09:56.701Z,99885.97
2023-03-04T15:12:27.406Z,99884.56
2023-03-04T15:15:25.213Z,99737.16
2023-03-04T15:18:03.325Z,99876.44
2023-03-04T15:20:33.288Z,99881.31
2023-03-04T15:23:07.165Z,99794.50
2023-03-04T15:25:36.645Z,99803.53
2023-03-04T15:28:05.296Z,99774.91
2023-03-04T15:30:37.940Z,99869.56
2023-03-04T15:33:09.090Z,99841.81
2023-03-04T15:35:38.584Z,99723.22
2023-03-04T15:38:11.575Z,99719.97
2023-03-04T15:40:43.311Z,99855.06
2023-03-04T15:43:19.246Z,99875.34
2023-03-04T15:45:47.464Z,99877.28
2023-03-04T15:48:15.780Z,99840.59
2023-03-04T15:50:47.997Z,99841.47
2023-03-04T15:53:24.425Z,99760.09
2023-03-04T15:55:53.845Z,99687.28
2023-03-04T15:58:20.713Z,99783.50
2023-03-04T16:00:47.722Z,99756.28
2023-03-04T16:03:16.989Z,99850.81
2023-03-04T16:05:47.443Z,99756.53
2023-03-04T16:08:17.206Z,99871.75
2023-03-04T16:10:49.996Z,99805.56
2023-03-04T16:13:19.672Z,99864.97
2023-03-04T16:15:46.993Z,99767.66
2023-03-04T16:18:17.250Z,99813.25
2023-03-04T16:20:47.025Z,99600.03
2023-03-04T16:23:17.070Z,99758.09
2023-03-04T16:25:45.647Z,99852.22
2023-03-04T16:28:15.365Z,99918.69
2023-03-04T16:30:44.577Z,99832.91
2023-03-04T16:33:11.574Z,99891.16
2023-03-04T16:35:41.315Z,99900.97
2023-03-04T16:38:19.705Z,99904.88
2023-03-04T16:40:49.655Z,99757.06
2023-03-04T16:43:18.965Z,99807.69
2023-03-04T16:45:46.185Z,99915.78
2023-03-04T16:48:12.981Z,99833.16
2023-03-04T16:50:42.803Z,99826.88
2023-03-04T16:53:32.738Z,99901.34
2023-03-04T16:56:04.430Z,99849.84
2023-03-04T16:58:33.931Z,99921.88
2023-03-04T17:01:02.901Z,99906.44
2023-03-04T17:03:33.949Z,99906.59
2023-03-04T17:06:03.269Z,99720.00
2023-03-04T17:08:32.268Z,99907.91
2023-03-04T17:11:03.709Z,99907.44
2023-03-04T17:13:30.638Z,99875.81
2023-03-04T17:16:03.838Z,99914.38
2023-03-04T17:18:33.223Z,99830.97
2023-03-04T17:21:06.065Z,99917.09
2023-03-04T17:23:33.357Z,99925.41
2023-03-04T17:26:00.077Z,99919.94
2023-03-04T17:28:29.514Z,99920.69
2023-03-04T17:30:56.138Z,99924.16
2023-03-04T17:33:23.498Z,99920.69
2023-03-04T17:35:50.289Z,99906.47
2023-03-04T17:38:17.554Z,99902.06
2023-03-04T17:40:47.543Z,99763.13
2023-03-04T17:43:14.592Z,99724.66
2023-03-04T17:45:42.381Z,99925.50
2023-03-04T17:48:15.424Z,99935.06
2023-03-04T17:50:53.976Z,99497.59
2023-03-04T17:53:23.840Z,99857.81
2023-03-04T17:56:00.237Z,99916.75
2023-03-04T17:58:31.444Z,99921.34
2023-03-04T18:01:15.334Z,99916.91
2023-03-04T18:03:42.350Z,99659.16
2023-03-04T18:06:09.257Z,99822.22
2023-03-04T18:08:39.040Z,99927.81
2023-03-04T18:11:08.083Z,99928.72
2023-03-04T18:13:36.886Z,99939.97
2023-03-04T18:16:04.465Z,99869.72
2023-03-04T18:18:33.436Z,99904.19
2023-03-04T18:21:00.833Z,99940.31
2023-03-04T18:23:28.736Z,99797.25
2023-03-04T18:25:55.697Z,99947.78
2023-03-04T18:28:23.050Z,99890.69
2023-03-04T18:30:55.684Z,99969.31
2023-03-04T18:33:27.939Z,99792.00
2023-03-04T18:36:02.631Z,99796.44
2023-03-04T18:38:32.121Z,99977.63
2023-03-04T18:41:04.528Z,99970.03
2023-03-04T18:43:31.705Z,99842.44
2023-03-04T18:46:26.072Z,99723.38
2023-03-04T18:48:54.579Z,99832.69
2023-03-04T18:51:23.690Z,99978.78
2023-03-04T18:53:52.730Z,99828.03
2023-03-04T18:56:49.094Z,99961.97
2023-03-04T18:59:31.412Z,99635.78
2023-03-04T19:02:02.014Z,99973.97
2023-03-04T19:04:34.359Z,99743.91
2023-03-04T19:07:05.014Z,100002.81
2023-03-04T19:09:34.071Z,99792.31
2023-03-04T19:12:02.117Z,99995.63
2023-03-04T19:14:28.939Z,99949.53
2023-03-04T19:16:55.687Z,99994.38
2023-03-04T19:19:25.235Z,99961.28
2023-03-04T19:21:53.840Z,99748.41
2023-03-04T19:24:20.775Z,100016.09
2023-03-04T19:26:47.639Z,99931.69
2023-03-04T19:29:15.197Z,100005.88
2023-03-04T19:31:46.708Z,100005.38
2023-03-04T19:34:13.522Z,99831.88
2023-03-04T19:36:43.023Z,99798.19
2023-03-04T19:39:09.844Z,100015.84
2023-03-04T19:41:37.093Z,99949.09
2023-03-04T19:44:03.857Z,99895.06
2023-03-04T19:46:31.485Z,99864.63
2023-03-04T19:49:01.694Z,100002.06
2023-03-04T19:51:32.917Z,100002.31
2023-03-04T19:54:00.418Z,99902.16
2023-03-04T19:56:30.179Z,100029.78
2023-03-04T19:58:57.608Z,99765.25
2023-03-04T20:01:29.786Z,100036.84
2023-03-04T20:03:59.591Z,100047.00
2023-03-04T20:06:27.165Z,99918.03
2023-03-04T20:08:57.327Z,100047.44
2023-03-04T20:11:26.566Z,99653.03
2023-03-04T20:13:54.401Z,99921.63
2023-03-04T20:16:21.420Z,100051.78
2023-03-04T20:18:48.396Z,99916.59
2023-03-04T20:21:15.223Z,99835.59
2023-03-04T20:23:42.184Z,99886.13
2023-03-04T20:26:09.027Z,99873.84
2023-03-04T20:28:50.925Z,99998.00
2023-03-04T20:31:24.949Z,100050.28
2023-03-04T20:33:53.111Z,99969.00
2023-03-04T20:36:22.054Z,100056.53
2023-03-04T20:39:00.661Z,100047.81
2023-03-04T20:41:29.111Z,100030.66
2023-03-04T20:43:56.023Z,100021.56
2023-03-04T20:46:36.905Z,100055.84
2023-03-04T20:49:06.759Z,100055.13
2023-03-04T20:51:34.236Z,100067.00
2023-03-04T20:54:04.160Z,100053.34
2023-03-04T20:56:31.576Z,99972.91
2023-03-04T20:59:00.940Z,99948.94
2023-03-04T21:01:28.322Z,100009.22
2023-03-04T21:03:55.168Z,100058.47
2023-03-04T21:06:25.260Z,99792.31
2023-03-04T21:08:52.243Z,100001.19
2023-03-04T21:11:23.820Z,99896.88
2023-03-04T21:13:58.594Z,99854.25
2023-03-04T21:16:31.826Z,99933.25
2023-03-04T21:18:58.560Z,99967.53
2023-03-04T21:21:27.737Z,100034.66
2023-03-04T21:23:56.086Z,99375.03
2023-03-04T21:26:24.026Z,100034.41
2023-03-04T21:28:52.655Z,99902.88
2023-03-04T21:31:22.874Z,100004.69
2023-03-04T21:33:55.963Z,99915.78
2023-03-04T21:36:23.331Z,100014.66
2023-03-04T21:38:53.534Z,99948.69
2023-03-04T21:41:23.295Z,99968.28
2023-03-04T21:43:52.626Z,99882.69
2023-03-04T21:46:23.374Z,100020.59
2023-03-04T21:48:50.418Z,100026.28
2023-03-04T21:51:17.297Z,99910.38
2023-03-04T21:53:44.187Z,99991.75
2023-03-04T21:56:12.593Z,100010.78
2023-03-04T21:58:42.518Z,100027.91
2023-03-04T22:01:11.709Z,100057.25
2023-03-04T22:03:38.786Z,100007.91
2023-03-04T22:06:10.008Z,100028.94
2023-03-04T22:08:38.043Z,100049.81
2023-03-04T22:11:10.471Z,99944.06
2023-03-04T22:13:37.965Z,99926.66
2023-03-04T22:16:05.695Z,99948.03
2023-03-04T22:18:32.632Z,100035.50
2023-03-04T22:21:01.621Z,100049.66
2023-03-04T22:23:29.077Z,99739.72
2023-03-04T22:26:02.590Z,99919.44
2023-03-04T22:28:32.222Z,99946.59
2023-03-04T22:30:58.903Z,100042.94
2023-03-04T22:33:25.921Z,100048.88
2023-03-04T22:35:53.026Z,100042.34
2023-03-04T22:38:22.474Z,100078.88
2023-03-04T22:40:52.186Z,100061.28
2023-03-04T22:43:21.740Z,100024.88
2023-03-04T22:45:49.021Z,99878.50
2023-03-04T22:48:19.154Z,100055.78
2023-03-04T22:50:46.164Z,100061.38
2023-03-04T22:53:15.241Z,99811.72
2023-03-04T22:55:41.984Z,99952.78
2023-03-04T22:58:08.669Z,99996.44
2023-03-04T23:00:38.076Z,99933.66
2023-03-04T23:03:06.590Z,99919.09
2023-03-04T23:05:33.430Z,100054.25
2023-03-04T23:08:00.565Z,99948.00
2023-03-04T23:10:29.598Z,99975.31
2023-03-04T23:13:04.689Z,100007.41
2023-03-04T23:15:31.448Z,100039.94
2023-03-04T23:17:58.176Z,100008.28
2023-03-04T23:20:25.190Z,99935.97
2023-03-04T23:22:51.954Z,99999.78
2023-03-04T23:25:18.741Z,99867.53
2023-03-04T23:27:45.526Z,99897.44
2023-03-04T23:30:17.763Z,99861.69
2023-03-04T23:32:46.880Z,100006.84
2023-03-04T23:35:15.949Z,99844.94
2023-03-04T23:37:42.785Z,100060.38
2023-03-04T23:40:13.332Z,99997.47
2023-03-04T23:42:42.555Z,100080.72
2023-03-04T23:45:09.911Z,100012.19
2023-03-04T23:47:36.657Z,100015.88
2023-03-04T23:50:04.016Z,100068.38
2023-03-04T23:52:31.216Z,100078.63
2023-03-04T23:55:00.476Z,99932.41
2023-03-04T23:57:27.308Z,99955.00
2023-03-04T23:59:56.639Z,99892.63
